sensor_id;sensor_type;location;lat;lon;timestamp;pressure;altitude;pressure_sealevel;temperature;humidity
77867;BME280;67271;59.120;37.970;2023-02-14T00:05:16;98887.09;;;-0.12;82.23
77867;BME280;67271;59.120;37.970;2023-02-14T00:07:42;98893.56;;;-0.14;82.15
77867;BME280;67271;59.120;37.970;2023-02-14T00:10:08;98908.50;;;-0.13;82.14
77867;BME280;67271;59.120;37.970;2023-02-14T00:12:34;98910.19;;;-0.12;82.18
77867;BME280;67271;59.120;37.970;2023-02-14T00:15:00;98903.88;;;-0.11;82.08
77867;BME280;67271;59.120;37.970;2023-02-14T00:17:44;98909.34;;;-0.13;82.09
77867;BME280;67271;59.120;37.970;2023-02-14T00:20:10;98915.84;;;-0.15;82.20
77867;BME280;67271;59.120;37.970;2023-02-14T00:22:36;98917.81;;;-0.17;82.01
77867;BME280;67271;59.120;37.970;2023-02-14T00:25:01;98917.13;;;-0.19;82.14
77867;BME280;67271;59.120;37.970;2023-02-14T00:27:27;98928.59;;;-0.19;82.46
77867;BME280;67271;59.120;37.970;2023-02-14T00:29:53;98929.44;;;-0.18;82.15
77867;BME280;67271;59.120;37.970;2023-02-14T00:32:20;98934.75;;;-0.18;82.19
77867;BME280;67271;59.120;37.970;2023-02-14T00:34:46;98930.56;;;-0.21;82.32
77867;BME280;67271;59.120;37.970;2023-02-14T00:37:12;98938.03;;;-0.24;82.44
77867;BME280;67271;59.120;37.970;2023-02-14T00:39:38;98937.38;;;-0.26;82.36
77867;BME280;67271;59.120;37.970;2023-02-14T00:42:04;98944.66;;;-0.28;82.35
77867;BME280;67271;59.120;37.970;2023-02-14T00:44:30;98943.66;;;-0.27;82.44
77867;BME280;67271;59.120;37.970;2023-02-14T00:46:56;98950.94;;;-0.29;82.51
77867;BME280;67271;59.120;37.970;2023-02-14T00:49:22;98946.66;;;-0.30;82.60
77867;BME280;67271;59.120;37.970;2023-02-14T00:51:48;98951.44;;;-0.34;82.53
77867;BME280;67271;59.120;37.970;2023-02-14T00:54:13;98954.25;;;-0.35;82.70
77867;BME280;67271;59.120;37.970;2023-02-14T00:56:39;98959.72;;;-0.37;82.85
77867;BME280;67271;59.120;37.970;2023-02-14T00:59:07;98962.53;;;-0.38;82.73
77867;BME280;67271;59.120;37.970;2023-02-14T01:01:33;98962.53;;;-0.38;82.48
77867;BME280;67271;59.120;37.970;2023-02-14T01:03:59;98962.53;;;-0.38;82.69
77867;BME280;67271;59.120;37.970;2023-02-14T01:06:25;98966.84;;;-0.38;82.76
77867;BME280;67271;59.120;37.970;2023-02-14T01:08:50;98971.19;;;-0.36;82.98
77867;BME280;67271;59.120;37.970;2023-02-14T01:11:20;98978.16;;;-0.35;82.83
77867;BME280;67271;59.120;37.970;2023-02-14T01:13:47;98978.00;;;-0.34;83.08
77867;BME280;67271;59.120;37.970;2023-02-14T01:16:16;98972.53;;;-0.32;82.78
77867;BME280;67271;59.120;37.970;2023-02-14T01:18:43;98973.38;;;-0.32;82.39
77867;BME280;67271;59.120;37.970;2023-02-14T01:21:23;98975.88;;;-0.30;82.59
77867;BME280;67271;59.120;37.970;2023-02-14T01:23:51;98979.53;;;-0.31;82.74
77867;BME280;67271;59.120;37.970;2023-02-14T01:26:17;98989.31;;;-0.32;82.71
77867;BME280;67271;59.120;37.970;2023-02-14T01:28:43;98992.63;;;-0.30;82.69
77867;BME280;67271;59.120;37.970;2023-02-14T01:31:12;98995.16;;;-0.28;82.78
77867;BME280;67271;59.120;37.970;2023-02-14T01:33:40;98996.53;;;-0.24;82.83
77867;BME280;67271;59.120;37.970;2023-02-14T01:36:07;99006.66;;;-0.20;82.37
77867;BME280;67271;59.120;37.970;2023-02-14T01:38:39;99011.84;;;-0.18;82.44
77867;BME280;67271;59.120;37.970;2023-02-14T01:41:04;99002.72;;;-0.16;82.30
77867;BME280;67271;59.120;37.970;2023-02-14T01:43:30;99005.38;;;-0.16;82.38
77867;BME280;67271;59.120;37.970;2023-02-14T01:45:56;99006.22;;;-0.15;82.36
77867;BME280;67271;59.120;37.970;2023-02-14T01:48:22;99007.88;;;-0.14;82.28
77867;BME280;67271;59.120;37.970;2023-02-14T01:50:51;99019.97;;;-0.20;82.55
77867;BME280;67271;59.120;37.970;2023-02-14T01:53:23;99018.28;;;-0.21;82.57
77867;BME280;67271;59.120;37.970;2023-02-14T01:55:58;99021.44;;;-0.25;82.52
77867;BME280;67271;59.120;37.970;2023-02-14T01:58:28;99015.56;;;-0.29;82.73
77867;BME280;67271;59.120;37.970;2023-02-14T02:00:56;99022.34;;;-0.34;82.95
77867;BME280;67271;59.120;37.970;2023-02-14T02:03:34;99015.50;;;-0.37;83.04
77867;BME280;67271;59.120;37.970;2023-02-14T02:06:27;99028.81;;;-0.37;83.13
77867;BME280;67271;59.120;37.970;2023-02-14T02:12:11;99039.63;;;-0.38;82.95
77867;BME280;67271;59.120;37.970;2023-02-14T02:14:38;99036.13;;;-0.39;82.91
77867;BME280;67271;59.120;37.970;2023-02-14T02:25:02;99050.41;;;-0.93;84.13
77867;BME280;67271;59.120;37.970;2023-02-14T02:30:38;99049.66;;;-0.86;84.23
77867;BME280;67271;59.120;37.970;2023-02-14T02:39:21;99055.19;;;-0.79;83.33
77867;BME280;67271;59.120;37.970;2023-02-14T02:45:12;99067.03;;;-0.91;84.00
77867;BME280;67271;59.120;37.970;2023-02-14T02:55:58;99064.72;;;-1.22;84.70
77867;BME280;67271;59.120;37.970;2023-02-14T02:59:14;99070.00;;;-1.22;84.94
77867;BME280;67271;59.120;37.970;2023-02-14T03:02:20;99066.63;;;-1.14;84.74
77867;BME280;67271;59.120;37.970;2023-02-14T03:04:55;99066.75;;;-1.15;84.65
77867;BME280;67271;59.120;37.970;2023-02-14T03:21:33;99095.47;;;-1.29;84.31
77867;BME280;67271;59.120;37.970;2023-02-14T03:32:26;99105.53;;;-1.32;84.74
77867;BME280;67271;59.120;37.970;2023-02-14T03:38:06;99114.97;;;-1.20;84.62
77867;BME280;67271;59.120;37.970;2023-02-14T03:40:49;99118.72;;;-1.13;84.23
77867;BME280;67271;59.120;37.970;2023-02-14T03:43:49;99119.94;;;-1.07;84.04
77867;BME280;67271;59.120;37.970;2023-02-14T03:46:19;99124.28;;;-1.06;84.52
77867;BME280;67271;59.120;37.970;2023-02-14T03:48:50;99123.56;;;-1.08;84.12
77867;BME280;67271;59.120;37.970;2023-02-14T03:51:18;99124.16;;;-1.14;84.39
77867;BME280;67271;59.120;37.970;2023-02-14T03:53:48;99131.34;;;-1.25;84.43
77867;BME280;67271;59.120;37.970;2023-02-14T03:59:12;99135.56;;;-1.32;85.25
77867;BME280;67271;59.120;37.970;2023-02-14T04:01:46;99142.22;;;-1.28;85.08
77867;BME280;67271;59.120;37.970;2023-02-14T04:04:17;99137.34;;;-1.23;85.12
77867;BME280;67271;59.120;37.970;2023-02-14T04:06:44;99145.41;;;-1.14;84.66
77867;BME280;67271;59.120;37.970;2023-02-14T04:09:11;99144.81;;;-1.08;84.41
77867;BME280;67271;59.120;37.970;2023-02-14T04:11:37;99148.16;;;-1.06;84.55
77867;BME280;67271;59.120;37.970;2023-02-14T04:14:03;99146.72;;;-1.01;84.74
77867;BME280;67271;59.120;37.970;2023-02-14T04:16:29;99157.88;;;-0.97;84.42
77867;BME280;67271;59.120;37.970;2023-02-14T04:18:55;99156.75;;;-0.95;84.25
77867;BME280;67271;59.120;37.970;2023-02-14T04:21:39;99164.25;;;-0.90;84.57
77867;BME280;67271;59.120;37.970;2023-02-14T04:24:05;99167.19;;;-0.84;84.57
77867;BME280;67271;59.120;37.970;2023-02-14T04:26:31;99167.44;;;-0.77;84.01
77867;BME280;67271;59.120;37.970;2023-02-14T04:28:57;99173.66;;;-0.68;83.88
77867;BME280;67271;59.120;37.970;2023-02-14T04:31:22;99182.84;;;-0.63;84.15
77867;BME280;67271;59.120;37.970;2023-02-14T04:33:48;99181.56;;;-0.59;83.87
77867;BME280;67271;59.120;37.970;2023-02-14T04:36:15;99195.53;;;-0.57;84.05
77867;BME280;67271;59.120;37.970;2023-02-14T04:38:41;99193.72;;;-0.56;83.83
77867;BME280;67271;59.120;37.970;2023-02-14T04:41:07;99198.88;;;-0.55;83.59
77867;BME280;67271;59.120;37.970;2023-02-14T04:43:33;99199.03;;;-0.56;83.90
77867;BME280;67271;59.120;37.970;2023-02-14T04:45:58;99197.22;;;-0.56;83.87
77867;BME280;67271;59.120;37.970;2023-02-14T04:48:24;99204.63;;;-0.59;83.58
77867;BME280;67271;59.120;37.970;2023-02-14T04:50:54;99202.44;;;-0.64;83.89
77867;BME280;67271;59.120;37.970;2023-02-14T04:53:21;99214.03;;;-0.65;83.75
77867;BME280;67271;59.120;37.970;2023-02-14T04:55:49;99215.84;;;-0.65;83.87
77867;BME280;67271;59.120;37.970;2023-02-14T04:58:16;99218.81;;;-0.68;84.11
77867;BME280;67271;59.120;37.970;2023-02-14T05:00:42;99218.97;;;-0.70;84.19
77867;BME280;67271;59.120;37.970;2023-02-14T05:03:07;99227.63;;;-0.68;83.95
77867;BME280;67271;59.120;37.970;2023-02-14T05:05:33;99231.50;;;-0.62;84.08
77867;BME280;67271;59.120;37.970;2023-02-14T05:07:59;99238.19;;;-0.58;83.74
77867;BME280;67271;59.120;37.970;2023-02-14T05:10:25;99231.75;;;-0.56;83.69
77867;BME280;67271;59.120;37.970;2023-02-14T05:12:51;99241.78;;;-0.50;83.72
77867;BME280;67271;59.120;37.970;2023-02-14T05:15:16;99245.97;;;-0.47;83.24
77867;BME280;67271;59.120;37.970;2023-02-14T05:17:42;99251.81;;;-0.44;83.56
77867;BME280;67271;59.120;37.970;2023-02-14T05:20:08;99252.66;;;-0.43;83.57
77867;BME280;67271;59.120;37.970;2023-02-14T05:22:34;99249.84;;;-0.42;83.43
77867;BME280;67271;59.120;37.970;2023-02-14T05:25:00;99255.03;;;-0.40;83.29
77867;BME280;67271;59.120;37.970;2023-02-14T05:27:25;99265.09;;;-0.44;83.54
77867;BME280;67271;59.120;37.970;2023-02-14T05:29:51;99261.91;;;-0.47;83.60
77867;BME280;67271;59.120;37.970;2023-02-14T05:32:17;99270.41;;;-0.44;83.35
77867;BME280;67271;59.120;37.970;2023-02-14T05:34:43;99276.19;;;-0.48;83.40
77867;BME280;67271;59.120;37.970;2023-02-14T05:37:08;99286.09;;;-0.50;83.66
77867;BME280;67271;59.120;37.970;2023-02-14T05:39:34;99278.72;;;-0.56;83.48
77867;BME280;67271;59.120;37.970;2023-02-14T05:42:00;99273.41;;;-0.56;83.42
77867;BME280;67271;59.120;37.970;2023-02-14T05:44:25;99284.28;;;-0.50;83.36
77867;BME280;67271;59.120;37.970;2023-02-14T05:46:51;99290.44;;;-0.49;83.05
77867;BME280;67271;59.120;37.970;2023-02-14T05:49:19;99284.00;;;-0.47;82.89
77867;BME280;67271;59.120;37.970;2023-02-14T05:51:45;99289.44;;;-0.38;82.81
77867;BME280;67271;59.120;37.970;2023-02-14T05:54:11;99295.66;;;-0.30;82.47
77867;BME280;67271;59.120;37.970;2023-02-14T05:56:36;99295.34;;;-0.27;82.07
77867;BME280;67271;59.120;37.970;2023-02-14T05:59:02;99295.34;;;-0.27;81.86
77867;BME280;67271;59.120;37.970;2023-02-14T06:01:28;99307.06;;;-0.20;81.95
77867;BME280;67271;59.120;37.970;2023-02-14T06:03:54;99308.38;;;-0.06;81.55
77867;BME280;67271;59.120;37.970;2023-02-14T06:06:19;99317.50;;;0.09;81.11
77867;BME280;67271;59.120;37.970;2023-02-14T06:08:45;99321.66;;;0.21;80.70
77867;BME280;67271;59.120;37.970;2023-02-14T06:11:11;99319.00;;;0.21;80.50
77867;BME280;67271;59.120;37.970;2023-02-14T06:13:37;99329.09;;;0.18;80.39
77867;BME280;67271;59.120;37.970;2023-02-14T06:16:05;99336.13;;;0.09;80.47
77867;BME280;67271;59.120;37.970;2023-02-14T06:18:30;99340.78;;;0.07;80.70
77867;BME280;67271;59.120;37.970;2023-02-14T06:20:56;99344.44;;;0.06;80.36
77867;BME280;67271;59.120;37.970;2023-02-14T06:23:22;99352.22;;;0.08;80.60
77867;BME280;67271;59.120;37.970;2023-02-14T06:25:48;99360.78;;;0.11;80.37
77867;BME280;67271;59.120;37.970;2023-02-14T06:28:13;99349.66;;;0.16;80.16
77867;BME280;67271;59.120;37.970;2023-02-14T06:30:39;99354.09;;;0.25;79.78
77867;BME280;67271;59.120;37.970;2023-02-14T06:33:05;99361.31;;;0.32;79.76
77867;BME280;67271;59.120;37.970;2023-02-14T06:35:30;99367.72;;;0.39;79.34
77867;BME280;67271;59.120;37.970;2023-02-14T06:37:56;99371.53;;;0.55;78.99
77867;BME280;67271;59.120;37.970;2023-02-14T06:40:22;99363.31;;;0.66;78.65
77867;BME280;67271;59.120;37.970;2023-02-14T06:42:48;99371.38;;;0.74;78.45
77867;BME280;67271;59.120;37.970;2023-02-14T06:45:14;99378.81;;;0.88;78.06
77867;BME280;67271;59.120;37.970;2023-02-14T06:47:40;99374.91;;;1.00;77.67
77867;BME280;67271;59.120;37.970;2023-02-14T06:50:06;99388.63;;;0.88;77.86
77867;BME280;67271;59.120;37.970;2023-02-14T06:52:32;99390.16;;;0.55;78.64
77867;BME280;67271;59.120;37.970;2023-02-14T06:54:58;99400.44;;;0.50;79.22
77867;BME280;67271;59.120;37.970;2023-02-14T06:57:24;99391.00;;;0.73;78.41
77867;BME280;67271;59.120;37.970;2023-02-14T06:59:49;99395.50;;;0.90;77.86
77867;BME280;67271;59.120;37.970;2023-02-14T07:02:15;99395.72;;;1.23;77.02
77867;BME280;67271;59.120;37.970;2023-02-14T07:04:41;99402.44;;;1.27;76.70
77867;BME280;67271;59.120;37.970;2023-02-14T07:07:06;99401.44;;;1.28;76.77
77867;BME280;67271;59.120;37.970;2023-02-14T07:09:32;99406.09;;;1.51;76.35
77867;BME280;67271;59.120;37.970;2023-02-14T07:11:58;99414.91;;;1.52;76.59
77867;BME280;67271;59.120;37.970;2023-02-14T07:14:24;99410.84;;;1.40;76.79
77867;BME280;67271;59.120;37.970;2023-02-14T07:16:50;99410.31;;;1.36;76.99
77867;BME280;67271;59.120;37.970;2023-02-14T07:19:15;99413.56;;;1.48;76.87
77867;BME280;67271;59.120;37.970;2023-02-14T07:21:41;99425.78;;;1.59;76.25
77867;BME280;67271;59.120;37.970;2023-02-14T07:24:07;99429.28;;;1.59;75.80
77867;BME280;67271;59.120;37.970;2023-02-14T07:26:33;99429.88;;;1.71;75.27
77867;BME280;67271;59.120;37.970;2023-02-14T07:28:58;99439.06;;;1.76;75.20
77867;BME280;67271;59.120;37.970;2023-02-14T07:31:24;99440.59;;;1.53;75.25
77867;BME280;67271;59.120;37.970;2023-02-14T07:33:50;99444.44;;;1.33;75.76
77867;BME280;67271;59.120;37.970;2023-02-14T07:36:17;99443.69;;;1.23;75.79
77867;BME280;67271;59.120;37.970;2023-02-14T07:38:43;99451.13;;;1.37;75.52
77867;BME280;67271;59.120;37.970;2023-02-14T07:41:09;99458.19;;;1.46;75.18
77867;BME280;67271;59.120;37.970;2023-02-14T07:43:34;99456.41;;;1.29;75.75
77867;BME280;67271;59.120;37.970;2023-02-14T07:46:01;99465.84;;;1.05;76.28
77867;BME280;67271;59.120;37.970;2023-02-14T07:48:28;99473.19;;;1.03;76.84
77867;BME280;67271;59.120;37.970;2023-02-14T07:50:53;99468.88;;;1.28;76.15
77867;BME280;67271;59.120;37.970;2023-02-14T07:53:23;99474.38;;;1.70;75.05
77867;BME280;67271;59.120;37.970;2023-02-14T07:55:52;99484.91;;;1.72;74.52
77867;BME280;67271;59.120;37.970;2023-02-14T07:58:18;99488.28;;;1.56;75.01
77867;BME280;67271;59.120;37.970;2023-02-14T08:00:44;99488.91;;;1.32;75.59
77867;BME280;67271;59.120;37.970;2023-02-14T08:03:11;99503.22;;;1.13;76.16
77867;BME280;67271;59.120;37.970;2023-02-14T08:05:38;99497.16;;;1.03;76.43
77867;BME280;67271;59.120;37.970;2023-02-14T08:08:06;99504.59;;;1.00;76.73
77867;BME280;67271;59.120;37.970;2023-02-14T08:10:32;99519.56;;;0.83;77.01
77867;BME280;67271;59.120;37.970;2023-02-14T08:12:58;99517.72;;;0.66;77.49
77867;BME280;67271;59.120;37.970;2023-02-14T08:15:28;99519.59;;;0.56;77.48
77867;BME280;67271;59.120;37.970;2023-02-14T08:18:13;99528.28;;;0.58;78.19
77867;BME280;67271;59.120;37.970;2023-02-14T08:20:39;99529.75;;;0.70;77.79
77867;BME280;67271;59.120;37.970;2023-02-14T08:23:05;99536.69;;;0.81;77.27
77867;BME280;67271;59.120;37.970;2023-02-14T08:25:31;99543.53;;;0.83;77.26
77867;BME280;67271;59.120;37.970;2023-02-14T08:27:56;99549.22;;;0.70;77.65
77867;BME280;67271;59.120;37.970;2023-02-14T08:30:22;99556.59;;;0.76;77.89
77867;BME280;67271;59.120;37.970;2023-02-14T08:32:48;99557.50;;;0.95;77.36
77867;BME280;67271;59.120;37.970;2023-02-14T08:35:14;99557.44;;;1.04;77.11
77867;BME280;67271;59.120;37.970;2023-02-14T08:37:40;99568.19;;;1.12;76.98
77867;BME280;67271;59.120;37.970;2023-02-14T08:40:06;99576.84;;;1.14;76.85
77867;BME280;67271;59.120;37.970;2023-02-14T08:42:32;99581.81;;;1.27;76.66
77867;BME280;67271;59.120;37.970;2023-02-14T08:44:58;99575.84;;;1.15;76.90
77867;BME280;67271;59.120;37.970;2023-02-14T08:47:23;99598.47;;;1.11;77.07
77867;BME280;67271;59.120;37.970;2023-02-14T08:49:49;99599.00;;;0.97;77.08
77867;BME280;67271;59.120;37.970;2023-02-14T08:52:15;99600.72;;;0.89;77.52
77867;BME280;67271;59.120;37.970;2023-02-14T08:54:42;99606.28;;;0.95;77.59
77867;BME280;67271;59.120;37.970;2023-02-14T08:57:07;99610.53;;;1.06;77.06
77867;BME280;67271;59.120;37.970;2023-02-14T08:59:33;99610.50;;;1.15;76.92
77867;BME280;67271;59.120;37.970;2023-02-14T09:01:59;99618.59;;;1.24;76.66
77867;BME280;67271;59.120;37.970;2023-02-14T09:04:24;99630.78;;;1.44;76.18
77867;BME280;67271;59.120;37.970;2023-02-14T09:06:50;99628.06;;;1.53;76.01
77867;BME280;67271;59.120;37.970;2023-02-14T09:09:16;99632.47;;;1.45;76.48
77867;BME280;67271;59.120;37.970;2023-02-14T09:11:42;99629.84;;;1.17;77.08
77867;BME280;67271;59.120;37.970;2023-02-14T09:14:08;99639.72;;;1.07;77.14
77867;BME280;67271;59.120;37.970;2023-02-14T09:16:34;99650.69;;;1.04;77.03
77867;BME280;67271;59.120;37.970;2023-02-14T09:19:00;99652.75;;;1.10;77.09
77867;BME280;67271;59.120;37.970;2023-02-14T09:21:26;99664.09;;;1.12;76.50
77867;BME280;67271;59.120;37.970;2023-02-14T09:23:53;99658.06;;;1.10;76.96
77867;BME280;67271;59.120;37.970;2023-02-14T09:26:19;99661.69;;;1.19;76.81
77867;BME280;67271;59.120;37.970;2023-02-14T09:28:46;99662.81;;;1.16;76.73
77867;BME280;67271;59.120;37.970;2023-02-14T09:33:38;99676.13;;;1.16;76.46
77867;BME280;67271;59.120;37.970;2023-02-14T09:36:04;99682.59;;;1.14;76.63
77867;BME280;67271;59.120;37.970;2023-02-14T09:38:49;99685.97;;;1.06;76.96
77867;BME280;67271;59.120;37.970;2023-02-14T09:46:47;99702.22;;;0.76;78.17
77867;BME280;67271;59.120;37.970;2023-02-14T09:49:18;99710.50;;;0.83;78.02
77867;BME280;67271;59.120;37.970;2023-02-14T09:51:49;99717.31;;;0.95;77.55
77867;BME280;67271;59.120;37.970;2023-02-14T09:54:18;99718.16;;;0.95;77.42
77867;BME280;67271;59.120;37.970;2023-02-14T09:59:56;99726.56;;;0.91;76.54
77867;BME280;67271;59.120;37.970;2023-02-14T10:05:21;99738.72;;;1.12;75.55
77867;BME280;67271;59.120;37.970;2023-02-14T10:08:07;99743.94;;;1.32;75.19
77867;BME280;67271;59.120;37.970;2023-02-14T10:10:39;99756.16;;;1.34;74.89
77867;BME280;67271;59.120;37.970;2023-02-14T10:13:15;99758.38;;;1.29;74.85
77867;BME280;67271;59.120;37.970;2023-02-14T10:15:45;99754.53;;;1.14;75.73
77867;BME280;67271;59.120;37.970;2023-02-14T10:18:39;99773.53;;;1.29;75.55
77867;BME280;67271;59.120;37.970;2023-02-14T10:21:06;99771.97;;;1.36;75.59
77867;BME280;67271;59.120;37.970;2023-02-14T10:23:49;99791.72;;;1.43;75.55
77867;BME280;67271;59.120;37.970;2023-02-14T10:26:20;99772.16;;;1.52;75.30
77867;BME280;67271;59.120;37.970;2023-02-14T10:28:50;99798.19;;;1.40;75.42
77867;BME280;67271;59.120;37.970;2023-02-14T10:31:30;99803.22;;;1.06;76.54
77867;BME280;67271;59.120;37.970;2023-02-14T10:50:41;99836.06;;;0.97;78.30
77867;BME280;67271;59.120;37.970;2023-02-14T10:56:05;99834.66;;;0.84;79.13
77867;BME280;67271;59.120;37.970;2023-02-14T10:58:37;99854.31;;;0.73;79.12
77867;BME280;67271;59.120;37.970;2023-02-14T11:03:36;99856.53;;;0.87;79.10
77867;BME280;67271;59.120;37.970;2023-02-14T11:06:02;99875.88;;;0.89;78.77
77867;BME280;67271;59.120;37.970;2023-02-14T11:08:39;99863.41;;;0.90;78.99
77867;BME280;67271;59.120;37.970;2023-02-14T11:13:49;99875.31;;;0.76;78.98
77867;BME280;67271;59.120;37.970;2023-02-14T11:16:34;99891.03;;;0.69;79.20
77867;BME280;67271;59.120;37.970;2023-02-14T11:21:40;99917.59;;;0.21;81.02
77867;BME280;67271;59.120;37.970;2023-02-14T11:26:51;99903.84;;;0.16;81.75
77867;BME280;67271;59.120;37.970;2023-02-14T11:29:29;99908.34;;;0.25;81.06
77867;BME280;67271;59.120;37.970;2023-02-14T11:31:55;99912.84;;;0.34;80.45
77867;BME280;67271;59.120;37.970;2023-02-14T11:34:38;99933.97;;;0.26;79.48
77867;BME280;67271;59.120;37.970;2023-02-14T11:37:26;99928.63;;;0.07;79.16
77867;BME280;67271;59.120;37.970;2023-02-14T11:39:55;99943.84;;;0.05;79.36
77867;BME280;67271;59.120;37.970;2023-02-14T11:44:58;99952.47;;;-0.12;78.17
77867;BME280;67271;59.120;37.970;2023-02-14T11:47:27;99960.06;;;-0.08;77.77
77867;BME280;67271;59.120;37.970;2023-02-14T11:50:02;99945.06;;;-0.09;76.82
77867;BME280;67271;59.120;37.970;2023-02-14T11:52:32;99959.72;;;-0.14;76.03
77867;BME280;67271;59.120;37.970;2023-02-14T11:54:58;99963.63;;;-0.18;76.01
77867;BME280;67271;59.120;37.970;2023-02-14T11:57:28;99967.00;;;-0.16;75.57
77867;BME280;67271;59.120;37.970;2023-02-14T11:59:57;99971.47;;;-0.17;74.79
77867;BME280;67271;59.120;37.970;2023-02-14T12:02:37;99995.28;;;-0.15;74.84
77867;BME280;67271;59.120;37.970;2023-02-14T12:05:51;99985.03;;;-0.20;75.05
77867;BME280;67271;59.120;37.970;2023-02-14T12:07:53;100003.88;;;-0.32;75.38
77867;BME280;67271;59.120;37.970;2023-02-14T12:10:25;100022.34;;;-0.31;75.41
77867;BME280;67271;59.120;37.970;2023-02-14T12:13:03;100026.53;;;-0.28;75.58
77867;BME280;67271;59.120;37.970;2023-02-14T12:18:37;100062.38;;;-0.44;74.36
77867;BME280;67271;59.120;37.970;2023-02-14T12:24:01;100053.56;;;-0.65;73.69
77867;BME280;67271;59.120;37.970;2023-02-14T12:29:23;100070.97;;;-0.72;72.82
77867;BME280;67271;59.120;37.970;2023-02-14T12:31:53;100068.72;;;-0.76;72.46
77867;BME280;67271;59.120;37.970;2023-02-14T12:34:21;100082.63;;;-0.84;72.92
77867;BME280;67271;59.120;37.970;2023-02-14T12:40:11;100089.44;;;-1.02;73.01
77867;BME280;67271;59.120;37.970;2023-02-14T12:45:50;100103.44;;;-1.11;73.50
77867;BME280;67271;59.120;37.970;2023-02-14T12:51:29;100136.25;;;-1.01;73.05
77867;BME280;67271;59.120;37.970;2023-02-14T12:54:01;100114.06;;;-1.00;71.45
77867;BME280;67271;59.120;37.970;2023-02-14T13:05:19;100139.16;;;-1.04;69.31
77867;BME280;67271;59.120;37.970;2023-02-14T13:19:09;100179.22;;;-1.19;68.57
77867;BME280;67271;59.120;37.970;2023-02-14T13:21:40;100171.75;;;-1.25;68.86
77867;BME280;67271;59.120;37.970;2023-02-14T13:24:26;100209.75;;;-1.35;69.39
77867;BME280;67271;59.120;37.970;2023-02-14T13:27:01;100218.69;;;-1.36;68.75
77867;BME280;67271;59.120;37.970;2023-02-14T13:29:51;100191.78;;;-1.32;68.05
77867;BME280;67271;59.120;37.970;2023-02-14T13:32:20;100179.38;;;-1.31;67.90
77867;BME280;67271;59.120;37.970;2023-02-14T13:34:48;100195.28;;;-1.31;68.00
77867;BME280;67271;59.120;37.970;2023-02-14T13:37:19;100209.53;;;-1.32;67.37
77867;BME280;67271;59.120;37.970;2023-02-14T13:39:55;100224.72;;;-1.34;67.32
77867;BME280;67271;59.120;37.970;2023-02-14T13:42:58;100217.59;;;-1.34;67.41
77867;BME280;67271;59.120;37.970;2023-02-14T13:48:30;100234.47;;;-1.35;67.41
77867;BME280;67271;59.120;37.970;2023-02-14T13:51:04;100246.91;;;-1.35;66.78
77867;BME280;67271;59.120;37.970;2023-02-14T13:56:01;100241.00;;;-1.39;67.54
77867;BME280;67271;59.120;37.970;2023-02-14T13:58:28;100246.53;;;-1.42;67.45
77867;BME280;67271;59.120;37.970;2023-02-14T14:00:54;100259.81;;;-1.42;67.39
77867;BME280;67271;59.120;37.970;2023-02-14T14:06:06;100263.41;;;-1.54;67.97
77867;BME280;67271;59.120;37.970;2023-02-14T14:08:43;100265.03;;;-1.75;68.14
77867;BME280;67271;59.120;37.970;2023-02-14T14:18:47;100271.25;;;-1.87;68.76
77867;BME280;67271;59.120;37.970;2023-02-14T14:21:24;100264.13;;;-1.87;68.87
77867;BME280;67271;59.120;37.970;2023-02-14T14:29:36;100283.53;;;-1.86;69.03
77867;BME280;67271;59.120;37.970;2023-02-14T14:32:11;100279.72;;;-1.82;68.34
77867;BME280;67271;59.120;37.970;2023-02-14T14:34:47;100303.88;;;-1.74;68.48
77867;BME280;67271;59.120;37.970;2023-02-14T14:37:19;100299.06;;;-1.69;68.07
77867;BME280;67271;59.120;37.970;2023-02-14T14:39:56;100297.13;;;-1.67;68.50
77867;BME280;67271;59.120;37.970;2023-02-14T14:42:25;100306.06;;;-1.68;68.23
77867;BME280;67271;59.120;37.970;2023-02-14T14:45:26;100305.03;;;-1.78;68.26
77867;BME280;67271;59.120;37.970;2023-02-14T14:47:53;100305.22;;;-1.92;68.45
77867;BME280;67271;59.120;37.970;2023-02-14T14:50:31;100308.03;;;-2.07;69.32
77867;BME280;67271;59.120;37.970;2023-02-14T14:53:17;100310.63;;;-2.18;69.47
77867;BME280;67271;59.120;37.970;2023-02-14T14:55:45;100321.66;;;-2.24;69.66
77867;BME280;67271;59.120;37.970;2023-02-14T14:58:38;100316.72;;;-2.28;69.79
77867;BME280;67271;59.120;37.970;2023-02-14T15:01:05;100319.69;;;-2.33;69.76
77867;BME280;67271;59.120;37.970;2023-02-14T15:03:33;100321.72;;;-2.37;69.80
77867;BME280;67271;59.120;37.970;2023-02-14T15:06:19;100322.91;;;-2.41;69.89
77867;BME280;67271;59.120;37.970;2023-02-14T15:08:47;100348.03;;;-2.46;69.64
77867;BME280;67271;59.120;37.970;2023-02-14T15:11:19;100335.84;;;-2.49;69.52
77867;BME280;67271;59.120;37.970;2023-02-14T15:14:12;100344.44;;;-2.58;69.64
77867;BME280;67271;59.120;37.970;2023-02-14T15:16:48;100345.84;;;-2.65;70.62
77867;BME280;67271;59.120;37.970;2023-02-14T15:19:26;100343.50;;;-2.69;70.31
77867;BME280;67271;59.120;37.970;2023-02-14T15:21:58;100345.63;;;-2.75;70.19
77867;BME280;67271;59.120;37.970;2023-02-14T15:24:24;100362.03;;;-2.82;70.27
77867;BME280;67271;59.120;37.970;2023-02-14T15:26:51;100353.78;;;-2.78;70.21
77867;BME280;67271;59.120;37.970;2023-02-14T15:29:24;100361.84;;;-2.79;70.56
77867;BME280;67271;59.120;37.970;2023-02-14T15:31:51;100361.19;;;-2.70;70.69
77867;BME280;67271;59.120;37.970;2023-02-14T15:34:30;100360.09;;;-2.55;70.19
77867;BME280;67271;59.120;37.970;2023-02-14T15:36:56;100373.34;;;-2.42;69.78
77867;BME280;67271;59.120;37.970;2023-02-14T15:39:48;100362.81;;;-2.31;69.44
77867;BME280;67271;59.120;37.970;2023-02-14T15:42:28;100379.97;;;-2.24;69.73
77867;BME280;67271;59.120;37.970;2023-02-14T15:45:19;100375.31;;;-2.20;69.60
77867;BME280;67271;59.120;37.970;2023-02-14T15:47:55;100368.13;;;-2.18;69.41
77867;BME280;67271;59.120;37.970;2023-02-14T15:50:24;100381.47;;;-2.20;69.50
77867;BME280;67271;59.120;37.970;2023-02-14T15:55:44;100379.78;;;-2.21;69.77
77867;BME280;67271;59.120;37.970;2023-02-14T15:58:18;100398.09;;;-2.18;70.11
77867;BME280;67271;59.120;37.970;2023-02-14T16:00:47;100388.34;;;-2.17;69.76